EGPFEGPK

Guest
Details From EGPF - Glasgow
To EGPK - Prestwick
Flight Number -
Tags generated
Created
Modified
Stats Distance 23 nm / 43 km
Max Altitude 100 ft / 30 m
Waypoints 3
Social Downloads 0
Likes 0
Share VATSIM

Download

Looking for another format? Having issues loading an existing format? Contact us
Advertisement - Login to hide

Notes

Basic altitude profile: - Ascent Rate: 2500ft/min - Ascent Speed: 250kts - Cruise Altitude: 5000ft - Cruise Speed: 420kts - Descent Rate: 1500ft/min - Descent Speed: 250kts Options: - Use NATs: yes - Use PACOTS: yes - Use low airways: yes - Use high airways: yes

Route

EGPF GOW EGPK

ID Type Via Altitude Latitude Longitude Leg Dist Tot Dist Heading (true) Name
O EGPF APT - 0 ft / 0 m 55.87173˚ -4.43365˚ - 0 nm - Glasgow
GOW VOR - 100 ft / 30 m 55.87050˚ -4.44573˚ 0 nm 0 nm 260° / 260° GLASGOW VOR-DME
O EGPK APT - 0 ft / 0 m 55.50230˚ -4.58836˚ 22 nm 23 nm 192° / 192° Prestwick

Altitude Profile

Advertisement - Login to hide

EGPF

Details ICAO EGPF (GLA)
Name Glasgow
Region United Kingdom
Timezone Europe/London (UTC+1.0)
Stats Elevation 26 ft / 8 m (AMSL)
Location 55.871728° -4.433648°
Runways 1
Magnetic Variation 2.657° W

METAR

EGPF 222020Z AUTO 09013KT 9999 BKN022 12/07 Q1025

Decode

TAF

TAF EGPF 221658Z 2218/2318 08009KT 9999 SCT020 PROB40 TEMPO 2223/2307 8000 BKN014

Decode

Departure Runways

ID Width Length Bearing (true) Bearing (mag) Surface Threshold Offset Overrun Length
05 151 ft / 46 m 8,721 ft / 2,658 m 46.34° 49.00° Asphalt 0 ft / 0 m 499 ft / 152 m
23 151 ft / 46 m 8,721 ft / 2,658 m 226.37° 229.03° Asphalt 1,004 ft / 306 m 0 ft / 0 m

EGPK

Details ICAO EGPK (PIK)
Name Prestwick
Region United Kingdom
Timezone Europe/London (UTC+1.0)
Stats Elevation 65 ft / 20 m (AMSL)
Location 55.502302° -4.588363°
Runways 2
Magnetic Variation 2.654° W

METAR

EGPK 222020Z 06006KT 9999 FEW040 11/07 Q1025

Decode

TAF

TAF TAF EGPK 221658Z 2218/2318 07009KT 9999 FEW030

Decode

Destination Runways

ID Width Length Bearing (true) Bearing (mag) Surface Threshold Offset Overrun Length
03 148 ft / 45 m 6,534 ft / 1,992 m 23.69° 26.34° Asphalt 538 ft / 164 m 0 ft / 0 m
13 151 ft / 46 m 9,789 ft / 2,984 m 121.38° 124.03° Asphalt 817 ft / 249 m 0 ft / 0 m
21 148 ft / 45 m 6,534 ft / 1,992 m 203.71° 206.36° Asphalt 0 ft / 0 m 0 ft / 0 m
31 151 ft / 46 m 9,789 ft / 2,984 m 301.42° 304.07° Asphalt 0 ft / 0 m 0 ft / 0 m

Approach Navaids

Runway Type Ident Frequency Range Bearing (true) Bearing (mag) Slope Elevation
13 Localiser IPP 110.30 MHz 18 nm / 33 km 121.42° 124.08° - 66 ft / 20 m (AMSL)
13 Glidescope IPP 110.30 MHz 10 nm / 19 km 121.40° 124.05° 3.00° 53 ft / 16 m (AMSL)
13 DME IPP 110.30 MHz 18 nm / 33 km - - - 48 ft / 15 m (AMSL)
31 Localiser IKK 110.30 MHz 18 nm / 33 km 301.38° 304.03° - 38 ft / 12 m (AMSL)
31 Glidescope IKK 110.30 MHz 10 nm / 19 km 301.40° 304.05° 3.50° 56 ft / 17 m (AMSL)
31 DME IKK 110.30 MHz 18 nm / 33 km - - - 48 ft / 15 m (AMSL)

Popular Alternatives